createdAt,value
2022-08-17T00:00:34.286Z,4.90
2022-08-17T00:03:10.063Z,4.97
2022-08-17T00:05:43.695Z,7.43
2022-08-17T00:08:12.321Z,9.47
2022-08-17T00:10:40.918Z,13.47
2022-08-17T00:13:10.410Z,11.83
2022-08-17T00:15:39.093Z,4.93
2022-08-17T00:19:01.315Z,5.67
2022-08-17T00:20:58.383Z,4.00
2022-08-17T00:23:26.968Z,3.20
2022-08-17T00:25:55.790Z,3.73
2022-08-17T00:28:24.571Z,4.63
2022-08-17T00:30:54.412Z,4.70
2022-08-17T00:33:26.830Z,4.60
2022-08-17T00:35:56.183Z,6.60
2022-08-17T00:38:25.244Z,5.73
2022-08-17T00:40:55.658Z,5.93
2022-08-17T00:43:31.678Z,4.97
2022-08-17T00:46:00.900Z,4.67
2022-08-17T00:48:31.089Z,4.83
2022-08-17T00:51:06.331Z,4.13
2022-08-17T00:53:36.015Z,5.03
2022-08-17T00:56:07.128Z,3.60
2022-08-17T00:58:36.469Z,4.60
2022-08-17T01:01:06.093Z,4.63
2022-08-17T01:03:36.468Z,5.53
2022-08-17T01:06:06.097Z,7.43
2022-08-17T01:08:34.654Z,8.50
2022-08-17T01:11:05.369Z,8.10
2022-08-17T01:13:40.995Z,9.00
2022-08-17T01:16:18.952Z,10.57
2022-08-17T01:18:51.262Z,9.53
2022-08-17T01:21:25.270Z,10.80
2022-08-17T01:23:54.804Z,9.13
2022-08-17T01:26:23.140Z,8.47
2022-08-17T01:28:54.621Z,7.00
2022-08-17T01:31:25.962Z,4.50
2022-08-17T01:33:54.613Z,4.53
2022-08-17T01:36:22.847Z,7.70
2022-08-17T01:38:51.141Z,7.27
2022-08-17T01:41:23.481Z,7.97
2022-08-17T01:43:54.705Z,5.50
2022-08-17T01:46:24.965Z,8.77
2022-08-17T01:48:53.153Z,9.47
2022-08-17T01:51:22.175Z,10.80
2022-08-17T01:53:53.673Z,9.63
2022-08-17T01:56:27.026Z,8.00
2022-08-17T01:58:55.462Z,7.03
2022-08-17T02:01:26.611Z,5.53
2022-08-17T02:04:00.626Z,4.90
2022-08-17T02:06:31.260Z,4.67
2022-08-17T02:09:03.052Z,8.43
2022-08-17T02:11:34.751Z,8.97
2022-08-17T02:14:04.040Z,9.50
2022-08-17T02:16:36.838Z,10.20
2022-08-17T02:19:13.551Z,9.73
2022-08-17T02:21:42.216Z,9.43
2022-08-17T02:24:12.982Z,6.13
2022-08-17T02:26:42.806Z,5.10
2022-08-17T02:29:11.022Z,6.53
2022-08-17T02:31:39.211Z,7.10
2022-08-17T02:34:07.445Z,6.93
2022-08-17T02:36:36.046Z,6.50
2022-08-17T02:39:05.648Z,5.90
2022-08-17T02:41:34.008Z,8.80
2022-08-17T02:44:03.499Z,7.97
2022-08-17T02:46:32.368Z,11.47
2022-08-17T02:49:00.719Z,10.03
2022-08-17T02:51:29.826Z,10.17
2022-08-17T02:54:02.183Z,11.93
2022-08-17T02:56:47.147Z,11.30
2022-08-17T02:59:16.882Z,6.40
2022-08-17T03:01:45.103Z,6.07
2022-08-17T03:04:13.338Z,6.50
2022-08-17T03:06:41.441Z,9.80
2022-08-17T03:09:09.865Z,7.47
2022-08-17T03:11:38.003Z,9.63
2022-08-17T03:14:08.910Z,13.93
2022-08-17T03:16:38.402Z,14.40
2022-08-17T03:19:07.567Z,17.00
2022-08-17T03:21:35.755Z,11.90
2022-08-17T03:24:09.028Z,12.20
2022-08-17T03:26:37.748Z,10.90
2022-08-17T03:29:05.876Z,10.90
2022-08-17T03:31:34.041Z,9.67
2022-08-17T03:34:06.632Z,8.90
2022-08-17T03:36:36.110Z,7.83
2022-08-17T03:39:04.714Z,4.57
2022-08-17T03:41:32.932Z,3.77
2022-08-17T03:44:01.159Z,4.60
2022-08-17T03:46:46.916Z,4.60
2022-08-17T03:49:34.781Z,7.30
2022-08-17T03:52:20.512Z,7.03
2022-08-17T03:55:06.379Z,10.00
2022-08-17T03:57:34.539Z,12.13
2022-08-17T04:00:02.759Z,13.63
2022-08-17T04:02:33.120Z,13.50
2022-08-17T04:05:02.876Z,15.17
2022-08-17T04:07:32.351Z,15.40
2022-08-17T04:10:05.016Z,12.43
2022-08-17T04:12:44.696Z,9.00
2022-08-17T04:15:13.486Z,6.43
2022-08-17T04:17:41.911Z,6.27
2022-08-17T04:20:12.567Z,5.40
2022-08-17T04:22:40.724Z,6.17
2022-08-17T04:25:16.590Z,4.77
2022-08-17T04:27:44.861Z,4.13
2022-08-17T04:30:14.039Z,4.47
2022-08-17T04:33:04.769Z,4.50
2022-08-17T04:35:37.980Z,4.33
2022-08-17T04:38:06.637Z,5.90
2022-08-17T04:40:52.386Z,4.50
2022-08-17T04:43:22.833Z,4.87
2022-08-17T04:45:56.363Z,4.50
2022-08-17T04:48:33.400Z,3.60
2022-08-17T04:51:09.899Z,4.27
2022-08-17T04:53:39.197Z,4.57
2022-08-17T04:56:07.873Z,3.67
2022-08-17T04:58:40.208Z,3.77
2022-08-17T05:01:08.848Z,5.23
2022-08-17T05:03:37.088Z,5.27
2022-08-17T05:06:07.112Z,4.60
2022-08-17T05:08:35.600Z,4.43
2022-08-17T05:11:03.878Z,3.93
2022-08-17T05:13:32.212Z,4.70
2022-08-17T05:16:01.774Z,4.60
2022-08-17T05:18:30.853Z,4.40
2022-08-17T05:20:59.058Z,3.97
2022-08-17T05:23:38.485Z,4.80
2022-08-17T05:26:11.723Z,4.00
2022-08-17T05:28:54.321Z,4.47
2022-08-17T05:31:22.517Z,3.90
2022-08-17T05:33:50.696Z,5.47
2022-08-17T05:36:42.154Z,5.20
2022-08-17T05:39:08.508Z,5.97
2022-08-17T05:41:46.350Z,8.50
2022-08-17T05:44:14.596Z,7.97
2022-08-17T05:46:45.300Z,7.07
2022-08-17T05:49:15.880Z,6.87
2022-08-17T05:52:10.055Z,5.90
2022-08-17T05:54:50.258Z,4.43
2022-08-17T05:57:30.887Z,4.67
2022-08-17T06:00:10.017Z,5.00
2022-08-17T06:02:47.873Z,5.20
2022-08-17T06:05:36.389Z,5.13
2022-08-17T06:08:12.734Z,6.20
2022-08-17T06:10:46.702Z,4.33
2022-08-17T06:13:23.693Z,4.93
2022-08-17T06:15:58.378Z,5.20
2022-08-17T06:18:31.087Z,6.10
2022-08-17T06:21:02.311Z,3.87
2022-08-17T06:23:36.735Z,4.43
2022-08-17T06:26:13.514Z,5.80
2022-08-17T06:28:46.272Z,5.43
2022-08-17T06:31:27.506Z,6.43
2022-08-17T06:33:55.950Z,4.93
2022-08-17T06:36:43.139Z,4.67
2022-08-17T06:39:30.851Z,4.30
2022-08-17T06:42:09.541Z,4.50
2022-08-17T06:45:03.470Z,4.17
2022-08-17T06:47:36.753Z,4.60
2022-08-17T06:50:11.803Z,4.30
2022-08-17T06:52:47.581Z,4.57
2022-08-17T06:55:19.485Z,5.23
2022-08-17T06:57:51.688Z,5.27
2022-08-17T07:00:26.116Z,4.93
2022-08-17T07:02:58.225Z,4.47
2022-08-17T07:05:28.296Z,6.23
2022-08-17T07:08:04.868Z,4.93
2022-08-17T07:10:38.516Z,4.43
2022-08-17T07:13:29.418Z,5.27
2022-08-17T07:16:04.771Z,3.77
2022-08-17T07:18:36.654Z,4.00
2022-08-17T07:21:15.519Z,3.90
2022-08-17T07:23:57.872Z,4.00
2022-08-17T07:26:26.094Z,5.23
2022-08-17T07:28:56.226Z,4.33
2022-08-17T07:31:26.392Z,4.63
2022-08-17T07:34:08.486Z,4.47
2022-08-17T07:36:36.648Z,4.87
2022-08-17T07:39:06.014Z,4.23
2022-08-17T07:41:53.168Z,3.50
2022-08-17T07:44:28.649Z,3.43
2022-08-17T07:47:15.230Z,4.20
2022-08-17T07:49:46.160Z,3.43
2022-08-17T07:52:50.553Z,2.70
2022-08-17T07:55:27.968Z,2.33
2022-08-17T07:57:57.446Z,2.33
2022-08-17T08:00:32.630Z,2.60
2022-08-17T08:03:06.394Z,2.80
2022-08-17T08:05:49.953Z,2.90
2022-08-17T08:08:28.052Z,2.90
2022-08-17T08:11:02.762Z,3.43
2022-08-17T08:13:32.818Z,3.27
2022-08-17T08:16:25.922Z,3.50
2022-08-17T08:18:57.951Z,3.80
2022-08-17T08:21:37.834Z,3.20
2022-08-17T08:24:19.607Z,3.70
2022-08-17T08:26:54.016Z,3.47
2022-08-17T08:29:28.441Z,3.20
2022-08-17T08:32:04.973Z,3.90
2022-08-17T08:34:58.564Z,3.73
2022-08-17T08:37:40.501Z,3.57
2022-08-17T08:40:21.562Z,4.00
2022-08-17T08:42:56.588Z,3.60
2022-08-17T08:45:28.376Z,3.60
2022-08-17T08:48:22.883Z,3.77
2022-08-17T08:51:01.714Z,3.80
2022-08-17T08:53:37.601Z,3.23
2022-08-17T08:56:08.864Z,4.10
2022-08-17T08:58:50.726Z,4.17
2022-08-17T09:01:25.123Z,4.20
2022-08-17T09:04:20.010Z,4.20
2022-08-17T09:06:59.844Z,4.30
2022-08-17T09:09:37.267Z,4.60
2022-08-17T09:12:10.732Z,3.97
2022-08-17T09:14:46.610Z,4.70
2022-08-17T09:17:18.451Z,5.13
2022-08-17T09:19:52.042Z,4.43
2022-08-17T09:22:31.325Z,4.50
2022-08-17T09:25:08.096Z,4.03
2022-08-17T09:27:46.328Z,4.17
2022-08-17T09:30:15.320Z,5.17
2022-08-17T09:32:47.105Z,4.10
2022-08-17T09:35:19.921Z,4.03
2022-08-17T09:37:54.954Z,3.63
2022-08-17T09:40:26.730Z,3.57
2022-08-17T09:42:57.826Z,3.57
2022-08-17T09:45:32.212Z,3.53
2022-08-17T09:48:05.029Z,3.47
2022-08-17T09:51:03.183Z,2.90
2022-08-17T09:53:31.665Z,3.80
2022-08-17T09:56:08.360Z,3.90
2022-08-17T09:58:50.467Z,3.90
2022-08-17T10:01:31.899Z,3.47
2022-08-17T10:04:07.693Z,3.53
2022-08-17T10:06:47.704Z,3.17
2022-08-17T10:09:18.890Z,3.50
2022-08-17T10:12:09.357Z,3.60
2022-08-17T10:14:44.006Z,3.23
2022-08-17T10:17:20.995Z,3.37
2022-08-17T10:19:58.655Z,3.60
2022-08-17T10:22:53.078Z,3.40
2022-08-17T10:25:54.531Z,3.50
2022-08-17T10:28:29.869Z,3.07
2022-08-17T10:31:30.758Z,3.00
2022-08-17T10:34:08.207Z,3.40
2022-08-17T10:36:46.133Z,3.00
2022-08-17T10:39:24.866Z,4.10
2022-08-17T10:41:57.054Z,3.77
2022-08-17T10:44:38.828Z,3.60
2022-08-17T10:47:11.689Z,4.20
2022-08-17T10:49:47.568Z,3.40
2022-08-17T10:52:52.367Z,3.70
2022-08-17T10:55:22.212Z,3.80
2022-08-17T10:57:51.426Z,3.83
2022-08-17T11:01:05.788Z,3.43
2022-08-17T11:03:34.045Z,4.07
2022-08-17T11:06:12.744Z,4.00
2022-08-17T11:09:06.506Z,3.67
2022-08-17T11:11:47.947Z,3.13
2022-08-17T11:14:34.906Z,4.10
2022-08-17T11:17:42.223Z,3.70
2022-08-17T11:20:31.084Z,3.97
2022-08-17T11:23:21.607Z,4.13
2022-08-17T11:25:53.644Z,3.23
2022-08-17T11:28:26.425Z,3.10
2022-08-17T11:30:57.193Z,3.40
2022-08-17T11:33:53.683Z,3.50
2022-08-17T11:36:31.737Z,3.50
2022-08-17T11:39:04.584Z,3.90
2022-08-17T11:41:39.799Z,3.40
2022-08-17T11:44:22.038Z,3.40
2022-08-17T11:47:23.415Z,3.50
2022-08-17T11:50:25.799Z,3.67
2022-08-17T11:52:56.104Z,3.80
2022-08-17T11:56:01.822Z,3.17
2022-08-17T11:58:38.759Z,3.33
2022-08-17T12:01:09.424Z,3.40
2022-08-17T12:03:55.583Z,3.60
2022-08-17T12:06:43.172Z,3.60
2022-08-17T12:09:15.824Z,3.60
2022-08-17T12:11:58.665Z,3.50
2022-08-17T12:15:08.085Z,3.20
2022-08-17T12:17:40.502Z,3.50
2022-08-17T12:20:24.300Z,3.30
2022-08-17T12:23:00.939Z,3.43
2022-08-17T12:25:35.242Z,3.47
2022-08-17T12:28:06.540Z,3.90
2022-08-17T12:30:36.617Z,3.80
2022-08-17T12:33:13.730Z,3.37
2022-08-17T12:35:59.731Z,3.20
2022-08-17T12:38:32.369Z,3.23
2022-08-17T12:41:22.487Z,3.40
2022-08-17T12:44:01.642Z,3.83
2022-08-17T12:46:33.767Z,3.50
2022-08-17T12:49:24.614Z,3.30
2022-08-17T12:51:56.539Z,3.37
2022-08-17T12:54:31.424Z,2.73
2022-08-17T12:57:03.240Z,3.40
2022-08-17T12:59:33.163Z,3.50
2022-08-17T13:02:02.254Z,3.50
2022-08-17T13:04:32.816Z,3.67
2022-08-17T13:07:00.999Z,3.30
2022-08-17T13:09:35.888Z,2.70
2022-08-17T13:12:09.327Z,3.07
2022-08-17T13:14:37.622Z,2.90
2022-08-17T13:17:11.060Z,2.90
2022-08-17T13:19:49.833Z,2.70
2022-08-17T13:22:21.384Z,3.17
2022-08-17T13:24:54.153Z,2.90
2022-08-17T13:27:24.375Z,3.67
2022-08-17T13:29:55.892Z,3.40
2022-08-17T13:32:34.366Z,2.97
2022-08-17T13:35:43.069Z,3.40
2022-08-17T13:38:15.714Z,3.37
2022-08-17T13:40:51.947Z,2.87
2022-08-17T13:43:44.619Z,3.07
2022-08-17T13:46:19.905Z,3.23
2022-08-17T13:48:58.345Z,3.20
2022-08-17T13:51:31.223Z,3.30
2022-08-17T13:54:05.824Z,3.10
2022-08-17T13:56:56.267Z,3.00
2022-08-17T13:59:52.503Z,3.10
2022-08-17T14:02:22.237Z,3.23
2022-08-17T14:04:50.490Z,3.50
2022-08-17T14:07:29.426Z,3.13
2022-08-17T14:10:00.702Z,3.43
2022-08-17T14:12:30.295Z,3.40
2022-08-17T14:14:59.503Z,2.90
2022-08-17T14:17:36.346Z,3.40
2022-08-17T14:20:09.510Z,3.37
2022-08-17T14:22:40.816Z,3.20
2022-08-17T14:25:10.880Z,2.70
2022-08-17T14:27:47.132Z,3.30
2022-08-17T14:30:22.218Z,3.70
2022-08-17T14:32:52.079Z,3.03
2022-08-17T14:35:23.289Z,3.63
2022-08-17T14:37:53.257Z,3.60
2022-08-17T14:40:24.972Z,3.20
2022-08-17T14:42:55.243Z,3.47
2022-08-17T14:45:31.469Z,4.00
2022-08-17T14:48:02.779Z,3.30
2022-08-17T14:50:31.810Z,3.40
2022-08-17T14:53:03.829Z,3.87
2022-08-17T14:55:32.547Z,4.40
2022-08-17T14:58:00.998Z,3.10
2022-08-17T15:00:29.181Z,3.10
2022-08-17T15:03:00.262Z,3.00
2022-08-17T15:05:37.903Z,4.10
2022-08-17T15:08:08.820Z,3.10
2022-08-17T15:10:37.713Z,3.83
2022-08-17T15:13:11.862Z,3.80
2022-08-17T15:15:40.899Z,3.10
2022-08-17T15:18:09.241Z,3.20
2022-08-17T15:20:37.470Z,3.57
2022-08-17T15:23:07.341Z,2.80
2022-08-17T15:25:35.694Z,3.63
2022-08-17T15:28:04.067Z,3.30
2022-08-17T15:30:32.349Z,3.53
2022-08-17T15:33:01.935Z,3.33
2022-08-17T15:35:33.721Z,3.00
2022-08-17T15:38:11.983Z,2.93
2022-08-17T15:40:45.443Z,3.60
2022-08-17T15:43:15.664Z,3.37
2022-08-17T15:45:44.519Z,2.80
2022-08-17T15:48:25.240Z,3.37
2022-08-17T15:50:53.693Z,3.53
2022-08-17T15:53:21.836Z,3.20
2022-08-17T15:55:51.648Z,3.23
2022-08-17T15:58:20.864Z,3.30
2022-08-17T16:01:18.183Z,3.13
2022-08-17T16:04:05.037Z,3.40
2022-08-17T16:06:35.451Z,3.17
2022-08-17T16:09:03.671Z,3.87
2022-08-17T16:11:33.166Z,2.87
2022-08-17T16:14:01.314Z,3.80
2022-08-17T16:16:31.460Z,3.80
2022-08-17T16:18:59.837Z,5.03
2022-08-17T16:21:31.247Z,4.30
2022-08-17T16:24:13.088Z,4.10
2022-08-17T16:26:43.814Z,4.23
2022-08-17T16:29:12.113Z,3.50
2022-08-17T16:31:41.911Z,3.30
2022-08-17T16:34:17.115Z,3.50
2022-08-17T16:36:53.723Z,3.90
2022-08-17T16:39:24.126Z,3.10
2022-08-17T16:41:53.554Z,3.20
2022-08-17T16:44:22.886Z,3.53
2022-08-17T16:46:51.557Z,3.63
2022-08-17T16:49:36.216Z,4.00
2022-08-17T16:52:10.054Z,3.67
2022-08-17T16:54:39.384Z,3.13
2022-08-17T16:57:08.899Z,3.30
2022-08-17T16:59:41.878Z,3.50
2022-08-17T17:02:14.148Z,4.03
2022-08-17T17:04:45.879Z,3.30
2022-08-17T17:07:25.818Z,3.23
2022-08-17T17:09:55.498Z,3.17
2022-08-17T17:13:01.229Z,3.17
2022-08-17T17:15:21.554Z,3.43
2022-08-17T17:17:52.143Z,3.70
2022-08-17T17:20:23.761Z,3.73
2022-08-17T17:23:02.295Z,3.73
2022-08-17T17:25:34.540Z,4.27
2022-08-17T17:28:09.850Z,4.20
2022-08-17T17:30:43.277Z,11.80
2022-08-17T17:33:13.859Z,7.97
2022-08-17T17:35:45.794Z,6.10
2022-08-17T17:38:18.778Z,6.50
2022-08-17T17:40:50.215Z,5.30
2022-08-17T17:43:38.347Z,6.03
2022-08-17T17:46:26.513Z,5.27
2022-08-17T17:48:57.219Z,5.13
2022-08-17T17:52:03.601Z,5.00
2022-08-17T17:54:32.476Z,5.50
2022-08-17T17:57:05.439Z,4.23
2022-08-17T17:59:44.090Z,5.10
2022-08-17T18:02:51.305Z,7.23
2022-08-17T18:05:34.508Z,6.00
2022-08-17T18:08:12.768Z,4.83
2022-08-17T18:10:49.160Z,5.80
2022-08-17T18:13:26.681Z,6.10
2022-08-17T18:16:00.856Z,5.70
2022-08-17T18:18:38.751Z,5.93
2022-08-17T18:21:16.980Z,6.90
2022-08-17T18:23:48.277Z,8.57
2022-08-17T18:26:37.088Z,7.20
2022-08-17T18:29:15.201Z,5.20
2022-08-17T18:31:44.925Z,5.03
2022-08-17T18:37:19.422Z,3.97
2022-08-17T18:39:47.912Z,4.13
2022-08-17T18:42:25.997Z,4.63
2022-08-17T18:44:55.483Z,4.83
2022-08-17T18:47:27.318Z,5.57
2022-08-17T18:50:02.591Z,6.63
2022-08-17T18:52:33.090Z,6.27
2022-08-17T18:55:09.770Z,6.60
2022-08-17T18:57:40.339Z,8.50
2022-08-17T19:00:17.713Z,6.90
2022-08-17T19:02:58.494Z,6.57
2022-08-17T19:05:32.561Z,8.33
2022-08-17T19:08:20.431Z,9.60
2022-08-17T19:10:50.509Z,8.50
2022-08-17T19:13:23.857Z,9.17
2022-08-17T19:16:14.458Z,8.40
2022-08-17T19:18:46.177Z,8.33
2022-08-17T19:21:20.191Z,7.93
2022-08-17T19:23:53.989Z,8.17
2022-08-17T19:26:53.690Z,9.07
2022-08-17T19:29:16.693Z,9.80
2022-08-17T19:31:47.998Z,8.33
2022-08-17T19:34:29.862Z,7.33
2022-08-17T19:37:04.753Z,16.43
2022-08-17T19:39:37.964Z,23.77
2022-08-17T19:42:12.725Z,17.30
2022-08-17T19:44:48.370Z,15.80
2022-08-17T19:47:36.679Z,6.60
2022-08-17T19:50:15.291Z,8.47
2022-08-17T19:52:48.648Z,9.30
2022-08-17T19:55:30.838Z,9.67
2022-08-17T19:58:07.085Z,9.27
2022-08-17T20:00:37.445Z,6.73
2022-08-17T20:03:16.316Z,5.53
2022-08-17T20:06:11.464Z,4.80
2022-08-17T20:08:44.172Z,5.00
2022-08-17T20:11:16.972Z,5.20
2022-08-17T20:13:49.722Z,5.10
2022-08-17T20:16:18.535Z,5.33
2022-08-17T20:18:51.510Z,4.40
2022-08-17T20:21:24.929Z,4.93
2022-08-17T20:23:55.419Z,4.73
2022-08-17T20:26:27.656Z,5.57
2022-08-17T20:29:37.763Z,5.00
2022-08-17T20:32:25.672Z,6.10
2022-08-17T20:35:09.390Z,6.40
2022-08-17T20:37:43.153Z,6.57
2022-08-17T20:40:36.460Z,4.97
2022-08-17T20:43:43.872Z,5.30
2022-08-17T20:46:31.693Z,3.97
2022-08-17T20:49:14.725Z,4.97
2022-08-17T20:52:01.528Z,6.23
2022-08-17T20:54:46.151Z,5.40
2022-08-17T20:57:49.074Z,8.00
2022-08-17T21:00:42.759Z,7.53
2022-08-17T21:03:51.033Z,8.20
2022-08-17T21:06:23.640Z,7.50
2022-08-17T21:08:55.136Z,8.13
2022-08-17T21:12:04.211Z,6.90
2022-08-17T21:14:51.954Z,6.70
2022-08-17T21:17:41.875Z,7.70
2022-08-17T21:20:23.148Z,6.90
2022-08-17T21:22:59.339Z,4.90
2022-08-17T21:25:44.949Z,4.90
2022-08-17T21:28:20.960Z,5.00
2022-08-17T21:30:55.520Z,5.50
2022-08-17T21:33:31.675Z,5.97
2022-08-17T21:36:24.829Z,8.07
2022-08-17T21:39:14.582Z,9.20
2022-08-17T21:41:52.833Z,9.60
2022-08-17T21:44:31.164Z,9.93
2022-08-17T21:47:15.184Z,8.10
2022-08-17T21:49:43.695Z,6.83
2022-08-17T21:52:14.817Z,7.80
2022-08-17T21:54:44.985Z,6.57
2022-08-17T21:57:17.858Z,6.97
2022-08-17T21:59:52.761Z,6.93
2022-08-17T22:02:23.087Z,6.00
2022-08-17T22:04:58.835Z,6.17
2022-08-17T22:07:39.497Z,4.53
2022-08-17T22:10:11.012Z,4.50
2022-08-17T22:12:39.135Z,5.83
2022-08-17T22:15:10.426Z,5.40
2022-08-17T22:17:42.272Z,5.17
2022-08-17T22:20:14.388Z,5.53
2022-08-17T22:23:24.354Z,5.60
2022-08-17T22:26:00.888Z,5.43
2022-08-17T22:28:41.021Z,4.73
2022-08-17T22:31:11.016Z,5.10
2022-08-17T22:33:46.020Z,5.57
2022-08-17T22:36:22.696Z,5.53
2022-08-17T22:38:53.407Z,5.37
2022-08-17T22:41:32.114Z,5.17
2022-08-17T22:44:02.459Z,4.87
2022-08-17T22:46:31.415Z,4.80
2022-08-17T22:49:00.724Z,4.87
2022-08-17T22:51:30.767Z,6.57
2022-08-17T22:54:19.908Z,7.30
2022-08-17T22:57:14.683Z,8.03
2022-08-17T22:59:51.319Z,7.67
2022-08-17T23:02:26.008Z,7.20
2022-08-17T23:04:57.410Z,9.00
2022-08-17T23:07:25.672Z,9.90
2022-08-17T23:09:55.768Z,8.20
2022-08-17T23:12:26.835Z,7.30
2022-08-17T23:15:00.701Z,8.47
2022-08-17T23:17:33.907Z,8.73
2022-08-17T23:20:06.641Z,8.37
2022-08-17T23:22:34.894Z,6.70
2022-08-17T23:25:05.283Z,7.57
2022-08-17T23:27:33.427Z,9.87
2022-08-17T23:30:01.592Z,10.03
2022-08-17T23:32:29.754Z,6.23
2022-08-17T23:34:59.206Z,7.63
2022-08-17T23:37:28.485Z,6.77
2022-08-17T23:39:56.754Z,4.90
2022-08-17T23:42:26.407Z,5.97
2022-08-17T23:44:55.881Z,7.50
2022-08-17T23:47:24.738Z,7.60
2022-08-17T23:49:54.242Z,10.93
2022-08-17T23:52:28.117Z,12.77
2022-08-17T23:54:57.576Z,9.50
2022-08-17T23:57:33.553Z,8.13
